Main page
METAR-TAF:

METAR-TAF

Airports :

Midtjyllands Airport

Karup, Denmark

latitude: 56-18N, longitude: 009-07E, elevation: 52 m

Current weather observation

The report was made 11 minutes ago, at 21:20 UTC
Wind 1 kt from the West/Northwest
Temperature 14°C
Humidity 67%
Pressure 1012 hPa
Visibility 10 km or more

METAR: EKKA 192120Z AUTO 30001KT 9999 NCD 14/08 Q1012

Time: 23:31 (21:31 UTC)

Forecast

The report was made 1 hour and 28 minutes ago, at 20:03 UTC
Forecast valid from 19 at 21 UTC to 20 at 21 UTC
Wind 2 kt from variable directions
Visibility 10 km or more
Few clouds at a height of 20000 ft
Becoming
from 20 at 08 UTC to 20 at 10 UTC
Wind 12 kt from the East
Temporary
from 20 at 12 UTC to 20 at 18 UTC
Few clouds at a height of 5000 ft, Cumulonimbus.

TAF: EKKA 192003Z 1921/2021 VRB02KT 9999 FEW200 BECMG 2008/2010 09012KT TEMPO 2012/2018 FEW050CB

Weather observations and forecasts of more than 4000 airports (METAR and TAF reports).

The available stations are represented by yellow and red dots on the map.

Hover mouse over dot to see the name of the station.

Then click to see weather observations and forecasts.

To change the map : click on the green buttons with a black cross to zoom in, on the green button with a dash to zoom out, or on the green arrows for adjacent maps.


METAR-TAF: